Lent, Minnesota
Current Conditions -  °F | °C
As of 11:56 AM on Wednesday 28 Jan 2015 (Local Time) from KCBG Reporting Station
Haze Haze  
Wind Chill: 20°   Ceiling: 900
Heat Index: 30°   Visibility: 5mi
Dew Point: 21°   Wind: 14mph
Humidity: 69%   Direction: 140°SE
Pressure: 29.89"   Gusts: 20mph
Location:  45.406°N, 93.0079°W
Report Text: KCBG 281756Z AUTO 14012G17KT 5SM HZ OVC009 M01/M06 A2989 RMK AO2
Loading
Personal Weather Stations






























Interactive Weather Map New forecast layout! Learn more

10-Day Weather Forecast

Advertisements
Track Severe Weather on mobile